Hall Miller Municipal Airport


Codes: KATA/
Name: Hall Miller Municipal Airport
City: Atlanta
Country: United States
Elevation: 280 ft.

Photos at Hall Miller Municipal Airport


   Photos courtesy of SpottingLog. You can add your own sightings and photos by signing up for a free trial today.



No photos found.

Weather at Hall Miller Municipal Airport


Time (UTC)DescriptionTempratureWindCloud coverageVisibilityPressureHumidity
21-Jun-2024 15:00Overcast Clouds23°C4 mph, E92%10000m1040hPa81%
21-Jun-2024 18:00Broken Clouds29°C4 mph, E65%10000m1030hPa56%
21-Jun-2024 21:00Clear Sky34°C4 mph, E1%10000m1018hPa32%
22-Jun-2024 00:00Clear Sky31°C4 mph, E1%10000m1017hPa48%
22-Jun-2024 03:00Clear Sky25°C4 mph, S5%10000m1018hPa62%
22-Jun-2024 06:00Scattered Clouds24°C2 mph, SW27%10000m1018hPa75%
22-Jun-2024 09:00Broken Clouds23°C2 mph, SW77%10000m1017hPa82%
22-Jun-2024 12:00Broken Clouds24°C2 mph, SW74%10000m1018hPa84%
22-Jun-2024 15:00Few Clouds31°C4 mph, W11%10000m1018hPa57%
22-Jun-2024 18:00Few Clouds35°C4 mph, S22%10000m1016hPa38%
22-Jun-2024 21:00Overcast Clouds30°C2 mph, SE100%10000m1015hPa63%
23-Jun-2024 00:00Overcast Clouds30°C2 mph, SW100%10000m1014hPa66%
23-Jun-2024 03:00Overcast Clouds27°C2 mph, SW94%10000m1014hPa65%
23-Jun-2024 06:00Broken Clouds25°C2 mph, W51%10000m1014hPa73%
23-Jun-2024 09:00Broken Clouds25°C4 mph, SW52%10000m1014hPa70%
23-Jun-2024 12:00Scattered Clouds24°C4 mph, SW31%10000m1014hPa80%
23-Jun-2024 15:00Clear Sky31°C7 mph, W1%10000m1015hPa54%
23-Jun-2024 18:00Clear Sky36°C4 mph, W1%10000m1014hPa36%
23-Jun-2024 21:00Scattered Clouds38°C4 mph, W36%10000m1011hPa31%
24-Jun-2024 00:00Broken Clouds31°C2 mph, NW69%10000m1011hPa53%
24-Jun-2024 03:00Overcast Clouds29°C4 mph, SW100%10000m1012hPa60%
24-Jun-2024 06:00Broken Clouds26°C4 mph, SW66%10000m1012hPa68%
24-Jun-2024 09:00Clear Sky24°C4 mph, SW0%10000m1012hPa76%
24-Jun-2024 12:00Clear Sky23°C4 mph, SW0%10000m1013hPa78%
24-Jun-2024 15:00Clear Sky31°C4 mph, SW0%10000m1014hPa56%
24-Jun-2024 18:00Clear Sky37°C4 mph, SW0%10000m1012hPa34%
24-Jun-2024 21:00Few Clouds39°C9 mph, S19%10000m1010hPa27%
25-Jun-2024 00:00Scattered Clouds34°C7 mph, SW36%10000m1010hPa41%
25-Jun-2024 03:00Scattered Clouds28°C2 mph, SW28%10000m1011hPa58%
25-Jun-2024 06:00Scattered Clouds28°C7 mph, S27%10000m1011hPa61%
25-Jun-2024 09:00Few Clouds27°C9 mph, SW20%10000m1011hPa69%
25-Jun-2024 12:00Few Clouds25°C7 mph, S14%10000m1012hPa83%
25-Jun-2024 15:00Clear Sky31°C9 mph, SW0%10000m1013hPa58%
25-Jun-2024 18:00Clear Sky36°C9 mph, S5%10000m1011hPa40%
25-Jun-2024 21:00Scattered Clouds37°C11 mph, SW50%10000m1010hPa34%
26-Jun-2024 00:00Broken Clouds34°C9 mph, SW60%10000m1008hPa41%
26-Jun-2024 03:00Clear Sky28°C7 mph, S6%10000m1009hPa64%
26-Jun-2024 06:00Light Rain25°C9 mph, SW51%10000m1010hPa95%
26-Jun-2024 09:00Light Rain26°C9 mph, SW83%10000m1009hPa81%
26-Jun-2024 12:00Light Rain24°C7 mph, SW91%10000m1010hPa95%